sensor_id;sensor_type;location;lat;lon;timestamp;P1;durP1;ratioP1;P2;durP2;ratioP2
29906;SDS011;16776;50.958;10.994;2022-08-04T00:00:14;1.00;;;0.93;;
29906;SDS011;16776;50.958;10.994;2022-08-04T00:02:44;0.77;;;0.77;;
29906;SDS011;16776;50.958;10.994;2022-08-04T00:05:26;1.33;;;1.00;;
29906;SDS011;16776;50.958;10.994;2022-08-04T00:08:01;0.98;;;0.70;;
29906;SDS011;16776;50.958;10.994;2022-08-04T00:10:32;0.90;;;0.80;;
29906;SDS011;16776;50.958;10.994;2022-08-04T00:13:00;0.73;;;0.73;;
29906;SDS011;16776;50.958;10.994;2022-08-04T00:15:29;1.00;;;1.00;;
29906;SDS011;16776;50.958;10.994;2022-08-04T00:17:58;1.63;;;0.77;;
29906;SDS011;16776;50.958;10.994;2022-08-04T00:20:31;0.63;;;0.63;;
29906;SDS011;16776;50.958;10.994;2022-08-04T00:22:58;0.80;;;0.80;;
29906;SDS011;16776;50.958;10.994;2022-08-04T00:25:26;1.63;;;0.98;;
29906;SDS011;16776;50.958;10.994;2022-08-04T00:27:53;0.93;;;0.93;;
29906;SDS011;16776;50.958;10.994;2022-08-04T00:30:20;1.23;;;1.10;;
29906;SDS011;16776;50.958;10.994;2022-08-04T00:32:47;1.20;;;1.10;;
29906;SDS011;16776;50.958;10.994;2022-08-04T00:35:18;0.63;;;0.63;;
29906;SDS011;16776;50.958;10.994;2022-08-04T00:37:46;1.20;;;0.88;;
29906;SDS011;16776;50.958;10.994;2022-08-04T00:40:21;0.90;;;0.90;;
29906;SDS011;16776;50.958;10.994;2022-08-04T00:42:57;1.27;;;1.17;;
29906;SDS011;16776;50.958;10.994;2022-08-04T00:49:08;0.70;;;0.70;;
29906;SDS011;16776;50.958;10.994;2022-08-04T00:51:46;0.80;;;0.80;;
29906;SDS011;16776;50.958;10.994;2022-08-04T00:54:20;0.75;;;0.75;;
29906;SDS011;16776;50.958;10.994;2022-08-04T00:57:08;1.00;;;0.70;;
29906;SDS011;16776;50.958;10.994;2022-08-04T00:59:50;0.90;;;0.90;;
29906;SDS011;16776;50.958;10.994;2022-08-04T01:02:30;0.75;;;0.75;;
29906;SDS011;16776;50.958;10.994;2022-08-04T01:05:05;0.75;;;0.75;;
29906;SDS011;16776;50.958;10.994;2022-08-04T01:10:26;1.00;;;0.90;;
29906;SDS011;16776;50.958;10.994;2022-08-04T01:13:11;1.40;;;0.90;;
29906;SDS011;16776;50.958;10.994;2022-08-04T01:15:52;0.70;;;0.70;;
29906;SDS011;16776;50.958;10.994;2022-08-04T01:18:26;1.25;;;1.17;;
29906;SDS011;16776;50.958;10.994;2022-08-04T01:21:03;0.88;;;0.80;;
29906;SDS011;16776;50.958;10.994;2022-08-04T01:26:49;0.70;;;0.70;;
29906;SDS011;16776;50.958;10.994;2022-08-04T01:29:21;0.82;;;0.82;;
29906;SDS011;16776;50.958;10.994;2022-08-04T01:34:34;0.80;;;0.73;;
29906;SDS011;16776;50.958;10.994;2022-08-04T01:37:10;1.20;;;0.80;;
29906;SDS011;16776;50.958;10.994;2022-08-04T01:39:42;0.88;;;0.88;;
29906;SDS011;16776;50.958;10.994;2022-08-04T01:42:25;0.82;;;0.82;;
29906;SDS011;16776;50.958;10.994;2022-08-04T01:44:55;0.70;;;0.70;;
29906;SDS011;16776;50.958;10.994;2022-08-04T01:47:25;0.70;;;0.70;;
29906;SDS011;16776;50.958;10.994;2022-08-04T01:49:58;0.70;;;0.70;;
29906;SDS011;16776;50.958;10.994;2022-08-04T01:52:32;0.80;;;0.80;;
29906;SDS011;16776;50.958;10.994;2022-08-04T01:55:00;0.90;;;0.90;;
29906;SDS011;16776;50.958;10.994;2022-08-04T01:57:29;0.88;;;0.88;;
29906;SDS011;16776;50.958;10.994;2022-08-04T02:00:00;0.80;;;0.80;;
29906;SDS011;16776;50.958;10.994;2022-08-04T02:02:27;0.70;;;0.70;;
29906;SDS011;16776;50.958;10.994;2022-08-04T02:04:53;0.73;;;0.73;;
29906;SDS011;16776;50.958;10.994;2022-08-04T02:07:27;0.95;;;0.95;;
29906;SDS011;16776;50.958;10.994;2022-08-04T02:10:06;0.93;;;0.93;;
29906;SDS011;16776;50.958;10.994;2022-08-04T02:12:38;2.58;;;0.90;;
29906;SDS011;16776;50.958;10.994;2022-08-04T02:15:18;0.70;;;0.70;;
29906;SDS011;16776;50.958;10.994;2022-08-04T02:17:53;0.90;;;0.90;;
29906;SDS011;16776;50.958;10.994;2022-08-04T02:20:28;1.20;;;1.10;;
29906;SDS011;16776;50.958;10.994;2022-08-04T02:22:59;0.98;;;0.98;;
29906;SDS011;16776;50.958;10.994;2022-08-04T02:25:29;0.77;;;0.77;;
29906;SDS011;16776;50.958;10.994;2022-08-04T02:28:18;0.90;;;0.90;;
29906;SDS011;16776;50.958;10.994;2022-08-04T02:30:57;1.00;;;1.00;;
29906;SDS011;16776;50.958;10.994;2022-08-04T02:33:34;0.80;;;0.80;;
29906;SDS011;16776;50.958;10.994;2022-08-04T02:36:03;1.88;;;1.08;;
29906;SDS011;16776;50.958;10.994;2022-08-04T02:38:36;1.00;;;1.00;;
29906;SDS011;16776;50.958;10.994;2022-08-04T02:41:12;1.02;;;1.00;;
29906;SDS011;16776;50.958;10.994;2022-08-04T02:43:41;1.30;;;1.17;;
29906;SDS011;16776;50.958;10.994;2022-08-04T02:46:13;0.93;;;0.93;;
29906;SDS011;16776;50.958;10.994;2022-08-04T02:48:42;2.13;;;1.02;;
29906;SDS011;16776;50.958;10.994;2022-08-04T02:51:12;0.98;;;0.98;;
29906;SDS011;16776;50.958;10.994;2022-08-04T02:53:40;1.25;;;1.15;;
29906;SDS011;16776;50.958;10.994;2022-08-04T02:56:08;1.17;;;0.80;;
29906;SDS011;16776;50.958;10.994;2022-08-04T02:58:36;1.13;;;0.88;;
29906;SDS011;16776;50.958;10.994;2022-08-04T03:01:05;1.30;;;1.20;;
29906;SDS011;16776;50.958;10.994;2022-08-04T03:03:38;2.85;;;0.90;;
29906;SDS011;16776;50.958;10.994;2022-08-04T03:06:16;0.93;;;0.93;;
29906;SDS011;16776;50.958;10.994;2022-08-04T03:09:19;1.02;;;1.00;;
29906;SDS011;16776;50.958;10.994;2022-08-04T03:12:20;0.70;;;0.70;;
29906;SDS011;16776;50.958;10.994;2022-08-04T03:18:19;0.90;;;0.90;;
29906;SDS011;16776;50.958;10.994;2022-08-04T03:24:15;1.33;;;0.82;;
29906;SDS011;16776;50.958;10.994;2022-08-04T03:27:00;1.48;;;0.68;;
29906;SDS011;16776;50.958;10.994;2022-08-04T03:35:49;1.10;;;0.75;;
29906;SDS011;16776;50.958;10.994;2022-08-04T03:38:38;1.00;;;1.00;;
29906;SDS011;16776;50.958;10.994;2022-08-04T03:41:31;0.90;;;0.90;;
29906;SDS011;16776;50.958;10.994;2022-08-04T03:47:24;1.08;;;0.90;;
29906;SDS011;16776;50.958;10.994;2022-08-04T03:50:15;1.92;;;0.95;;
29906;SDS011;16776;50.958;10.994;2022-08-04T03:52:55;0.90;;;0.90;;
29906;SDS011;16776;50.958;10.994;2022-08-04T03:58:44;0.75;;;0.75;;
29906;SDS011;16776;50.958;10.994;2022-08-04T04:01:24;0.60;;;0.60;;
29906;SDS011;16776;50.958;10.994;2022-08-04T04:04:35;0.75;;;0.75;;
29906;SDS011;16776;50.958;10.994;2022-08-04T04:07:20;0.90;;;0.90;;
29906;SDS011;16776;50.958;10.994;2022-08-04T04:10:12;1.75;;;1.50;;
29906;SDS011;16776;50.958;10.994;2022-08-04T04:13:01;1.20;;;1.00;;
29906;SDS011;16776;50.958;10.994;2022-08-04T04:15:45;2.55;;;1.65;;
29906;SDS011;16776;50.958;10.994;2022-08-04T04:18:31;0.90;;;0.90;;
29906;SDS011;16776;50.958;10.994;2022-08-04T04:21:17;2.75;;;0.90;;
29906;SDS011;16776;50.958;10.994;2022-08-04T04:24:10;1.30;;;1.17;;
29906;SDS011;16776;50.958;10.994;2022-08-04T04:27:07;0.98;;;0.98;;
29906;SDS011;16776;50.958;10.994;2022-08-04T04:29:49;1.42;;;1.00;;
29906;SDS011;16776;50.958;10.994;2022-08-04T04:35:35;1.55;;;0.95;;
29906;SDS011;16776;50.958;10.994;2022-08-04T04:38:16;0.90;;;0.90;;
29906;SDS011;16776;50.958;10.994;2022-08-04T04:40:56;0.85;;;0.85;;
29906;SDS011;16776;50.958;10.994;2022-08-04T04:43:35;2.42;;;1.10;;
29906;SDS011;16776;50.958;10.994;2022-08-04T04:46:25;0.80;;;0.80;;
29906;SDS011;16776;50.958;10.994;2022-08-04T04:49:02;0.93;;;0.93;;
29906;SDS011;16776;50.958;10.994;2022-08-04T04:51:37;0.70;;;0.70;;
29906;SDS011;16776;50.958;10.994;2022-08-04T04:54:10;1.20;;;1.05;;
29906;SDS011;16776;50.958;10.994;2022-08-04T04:56:47;1.00;;;0.82;;
29906;SDS011;16776;50.958;10.994;2022-08-04T04:59:21;0.93;;;0.93;;
29906;SDS011;16776;50.958;10.994;2022-08-04T05:02:06;0.90;;;0.90;;
29906;SDS011;16776;50.958;10.994;2022-08-04T05:05:16;1.13;;;1.05;;
29906;SDS011;16776;50.958;10.994;2022-08-04T05:08:06;0.90;;;0.90;;
29906;SDS011;16776;50.958;10.994;2022-08-04T05:14:01;0.73;;;0.73;;
29906;SDS011;16776;50.958;10.994;2022-08-04T05:16:31;0.90;;;0.90;;
29906;SDS011;16776;50.958;10.994;2022-08-04T05:19:02;0.80;;;0.80;;
29906;SDS011;16776;50.958;10.994;2022-08-04T05:21:43;0.90;;;0.80;;
29906;SDS011;16776;50.958;10.994;2022-08-04T05:24:14;1.00;;;0.90;;
29906;SDS011;16776;50.958;10.994;2022-08-04T05:26:44;0.82;;;0.82;;
29906;SDS011;16776;50.958;10.994;2022-08-04T05:29:17;0.75;;;0.75;;
29906;SDS011;16776;50.958;10.994;2022-08-04T05:31:53;1.00;;;0.82;;
29906;SDS011;16776;50.958;10.994;2022-08-04T05:34:21;1.27;;;1.10;;
29906;SDS011;16776;50.958;10.994;2022-08-04T05:36:54;0.85;;;0.80;;
29906;SDS011;16776;50.958;10.994;2022-08-04T05:41:55;1.50;;;0.90;;
29906;SDS011;16776;50.958;10.994;2022-08-04T05:44:26;1.33;;;1.20;;
29906;SDS011;16776;50.958;10.994;2022-08-04T05:46:54;1.10;;;1.00;;
29906;SDS011;16776;50.958;10.994;2022-08-04T05:49:23;0.90;;;0.90;;
29906;SDS011;16776;50.958;10.994;2022-08-04T05:51:54;1.15;;;1.00;;
29906;SDS011;16776;50.958;10.994;2022-08-04T05:56:51;0.90;;;0.90;;
29906;SDS011;16776;50.958;10.994;2022-08-04T05:59:19;0.80;;;0.80;;
29906;SDS011;16776;50.958;10.994;2022-08-04T06:01:49;1.48;;;1.17;;
29906;SDS011;16776;50.958;10.994;2022-08-04T06:04:17;1.08;;;0.90;;
29906;SDS011;16776;50.958;10.994;2022-08-04T06:06:45;1.00;;;0.90;;
29906;SDS011;16776;50.958;10.994;2022-08-04T06:09:15;0.93;;;0.93;;
29906;SDS011;16776;50.958;10.994;2022-08-04T06:11:43;3.13;;;1.17;;
29906;SDS011;16776;50.958;10.994;2022-08-04T06:14:11;1.15;;;1.00;;
29906;SDS011;16776;50.958;10.994;2022-08-04T06:16:40;1.00;;;1.00;;
29906;SDS011;16776;50.958;10.994;2022-08-04T06:19:10;1.30;;;1.23;;
29906;SDS011;16776;50.958;10.994;2022-08-04T06:21:40;1.05;;;1.05;;
29906;SDS011;16776;50.958;10.994;2022-08-04T06:24:10;1.42;;;1.33;;
29906;SDS011;16776;50.958;10.994;2022-08-04T06:26:41;0.90;;;0.90;;
29906;SDS011;16776;50.958;10.994;2022-08-04T06:29:10;1.20;;;1.10;;
29906;SDS011;16776;50.958;10.994;2022-08-04T06:31:48;0.90;;;0.90;;
29906;SDS011;16776;50.958;10.994;2022-08-04T06:34:23;0.82;;;0.82;;
29906;SDS011;16776;50.958;10.994;2022-08-04T06:36:54;2.25;;;0.90;;
29906;SDS011;16776;50.958;10.994;2022-08-04T06:39:23;1.95;;;0.90;;
29906;SDS011;16776;50.958;10.994;2022-08-04T06:41:54;2.35;;;1.20;;
29906;SDS011;16776;50.958;10.994;2022-08-04T06:44:21;1.02;;;0.95;;
29906;SDS011;16776;50.958;10.994;2022-08-04T06:46:49;1.00;;;0.95;;
29906;SDS011;16776;50.958;10.994;2022-08-04T06:49:17;1.83;;;1.25;;
29906;SDS011;16776;50.958;10.994;2022-08-04T06:51:46;1.48;;;1.38;;
29906;SDS011;16776;50.958;10.994;2022-08-04T06:54:16;1.10;;;1.10;;
29906;SDS011;16776;50.958;10.994;2022-08-04T06:56:43;0.95;;;0.80;;
29906;SDS011;16776;50.958;10.994;2022-08-04T06:59:12;1.92;;;0.77;;
29906;SDS011;16776;50.958;10.994;2022-08-04T07:01:42;1.90;;;0.80;;
29906;SDS011;16776;50.958;10.994;2022-08-04T07:04:11;0.98;;;0.88;;
29906;SDS011;16776;50.958;10.994;2022-08-04T07:06:38;2.15;;;0.95;;
29906;SDS011;16776;50.958;10.994;2022-08-04T07:09:04;0.90;;;0.90;;
29906;SDS011;16776;50.958;10.994;2022-08-04T07:11:32;1.10;;;1.00;;
29906;SDS011;16776;50.958;10.994;2022-08-04T07:13:58;0.85;;;0.82;;
29906;SDS011;16776;50.958;10.994;2022-08-04T07:16:27;1.10;;;1.10;;
29906;SDS011;16776;50.958;10.994;2022-08-04T07:18:55;0.90;;;0.90;;
29906;SDS011;16776;50.958;10.994;2022-08-04T07:21:22;1.95;;;0.90;;
29906;SDS011;16776;50.958;10.994;2022-08-04T07:23:51;1.13;;;0.93;;
29906;SDS011;16776;50.958;10.994;2022-08-04T07:26:18;1.45;;;1.23;;
29906;SDS011;16776;50.958;10.994;2022-08-04T07:28:47;1.42;;;1.15;;
29906;SDS011;16776;50.958;10.994;2022-08-04T07:31:15;1.02;;;1.02;;
29906;SDS011;16776;50.958;10.994;2022-08-04T07:33:44;1.90;;;1.20;;
29906;SDS011;16776;50.958;10.994;2022-08-04T07:38:41;0.82;;;0.82;;
29906;SDS011;16776;50.958;10.994;2022-08-04T07:41:08;1.67;;;1.20;;
29906;SDS011;16776;50.958;10.994;2022-08-04T07:43:36;2.35;;;1.05;;
29906;SDS011;16776;50.958;10.994;2022-08-04T07:46:03;1.35;;;1.00;;
29906;SDS011;16776;50.958;10.994;2022-08-04T07:48:30;0.90;;;0.90;;
29906;SDS011;16776;50.958;10.994;2022-08-04T07:50:58;1.10;;;0.70;;
29906;SDS011;16776;50.958;10.994;2022-08-04T07:53:25;0.68;;;0.65;;
29906;SDS011;16776;50.958;10.994;2022-08-04T07:55:53;0.95;;;0.73;;
29906;SDS011;16776;50.958;10.994;2022-08-04T07:58:21;0.50;;;0.50;;
29906;SDS011;16776;50.958;10.994;2022-08-04T08:00:48;0.60;;;0.60;;
29906;SDS011;16776;50.958;10.994;2022-08-04T08:03:14;1.02;;;0.95;;
29906;SDS011;16776;50.958;10.994;2022-08-04T08:05:41;0.70;;;0.70;;
29906;SDS011;16776;50.958;10.994;2022-08-04T08:08:09;0.57;;;0.57;;
29906;SDS011;16776;50.958;10.994;2022-08-04T08:10:36;0.60;;;0.60;;
29906;SDS011;16776;50.958;10.994;2022-08-04T08:13:04;1.27;;;0.95;;
29906;SDS011;16776;50.958;10.994;2022-08-04T08:15:32;0.68;;;0.68;;
29906;SDS011;16776;50.958;10.994;2022-08-04T08:17:59;0.82;;;0.82;;
29906;SDS011;16776;50.958;10.994;2022-08-04T08:20:29;1.02;;;0.80;;
29906;SDS011;16776;50.958;10.994;2022-08-04T08:22:57;1.50;;;0.98;;
29906;SDS011;16776;50.958;10.994;2022-08-04T08:25:25;1.70;;;0.60;;
29906;SDS011;16776;50.958;10.994;2022-08-04T08:27:52;0.52;;;0.52;;
29906;SDS011;16776;50.958;10.994;2022-08-04T08:30:19;0.43;;;0.43;;
29906;SDS011;16776;50.958;10.994;2022-08-04T08:32:45;0.38;;;0.38;;
29906;SDS011;16776;50.958;10.994;2022-08-04T08:35:12;0.50;;;0.50;;
29906;SDS011;16776;50.958;10.994;2022-08-04T08:37:40;0.50;;;0.50;;
29906;SDS011;16776;50.958;10.994;2022-08-04T08:40:18;0.63;;;0.63;;
29906;SDS011;16776;50.958;10.994;2022-08-04T08:43:10;0.60;;;0.47;;
29906;SDS011;16776;50.958;10.994;2022-08-04T08:46:03;0.30;;;0.30;;
29906;SDS011;16776;50.958;10.994;2022-08-04T08:49:07;0.57;;;0.40;;
29906;SDS011;16776;50.958;10.994;2022-08-04T08:52:03;0.40;;;0.40;;
29906;SDS011;16776;50.958;10.994;2022-08-04T08:54:55;1.65;;;0.60;;
29906;SDS011;16776;50.958;10.994;2022-08-04T08:57:37;0.43;;;0.40;;
29906;SDS011;16776;50.958;10.994;2022-08-04T09:00:15;0.60;;;0.40;;
29906;SDS011;16776;50.958;10.994;2022-08-04T09:05:50;0.40;;;0.40;;
29906;SDS011;16776;50.958;10.994;2022-08-04T09:08:38;0.80;;;0.47;;
29906;SDS011;16776;50.958;10.994;2022-08-04T09:11:25;0.30;;;0.30;;
29906;SDS011;16776;50.958;10.994;2022-08-04T09:13:56;0.28;;;0.28;;
29906;SDS011;16776;50.958;10.994;2022-08-04T09:16:35;0.50;;;0.50;;
29906;SDS011;16776;50.958;10.994;2022-08-04T09:19:14;0.40;;;0.40;;
29906;SDS011;16776;50.958;10.994;2022-08-04T09:24:17;0.30;;;0.30;;
29906;SDS011;16776;50.958;10.994;2022-08-04T09:26:49;0.57;;;0.50;;
29906;SDS011;16776;50.958;10.994;2022-08-04T09:29:26;0.32;;;0.32;;
29906;SDS011;16776;50.958;10.994;2022-08-04T09:32:03;0.30;;;0.30;;
29906;SDS011;16776;50.958;10.994;2022-08-04T09:34:38;0.40;;;0.40;;
29906;SDS011;16776;50.958;10.994;2022-08-04T09:37:15;1.35;;;0.57;;
29906;SDS011;16776;50.958;10.994;2022-08-04T09:39:52;0.57;;;0.25;;
29906;SDS011;16776;50.958;10.994;2022-08-04T09:42:32;0.40;;;0.30;;
29906;SDS011;16776;50.958;10.994;2022-08-04T09:45:06;0.40;;;0.40;;
29906;SDS011;16776;50.958;10.994;2022-08-04T09:47:44;1.10;;;0.47;;
29906;SDS011;16776;50.958;10.994;2022-08-04T09:50:19;0.40;;;0.40;;
29906;SDS011;16776;50.958;10.994;2022-08-04T09:52:57;0.60;;;0.40;;
29906;SDS011;16776;50.958;10.994;2022-08-04T09:55:37;0.30;;;0.30;;
29906;SDS011;16776;50.958;10.994;2022-08-04T09:58:10;0.47;;;0.40;;
29906;SDS011;16776;50.958;10.994;2022-08-04T10:00:48;0.38;;;0.38;;
29906;SDS011;16776;50.958;10.994;2022-08-04T10:03:20;3.33;;;0.57;;
29906;SDS011;16776;50.958;10.994;2022-08-04T10:05:54;0.50;;;0.40;;
29906;SDS011;16776;50.958;10.994;2022-08-04T10:08:37;0.93;;;0.60;;
29906;SDS011;16776;50.958;10.994;2022-08-04T10:11:20;0.55;;;0.40;;
29906;SDS011;16776;50.958;10.994;2022-08-04T10:13:55;0.63;;;0.40;;
29906;SDS011;16776;50.958;10.994;2022-08-04T10:16:36;3.88;;;1.10;;
29906;SDS011;16776;50.958;10.994;2022-08-04T10:19:19;1.35;;;0.85;;
29906;SDS011;16776;50.958;10.994;2022-08-04T10:22:00;0.88;;;0.75;;
29906;SDS011;16776;50.958;10.994;2022-08-04T10:24:38;0.85;;;0.73;;
29906;SDS011;16776;50.958;10.994;2022-08-04T10:27:15;2.17;;;0.50;;
29906;SDS011;16776;50.958;10.994;2022-08-04T10:29:47;0.40;;;0.40;;
29906;SDS011;16776;50.958;10.994;2022-08-04T10:32:15;0.40;;;0.40;;
29906;SDS011;16776;50.958;10.994;2022-08-04T10:34:53;1.70;;;0.50;;
29906;SDS011;16776;50.958;10.994;2022-08-04T10:37:27;0.40;;;0.40;;
29906;SDS011;16776;50.958;10.994;2022-08-04T10:39:58;0.32;;;0.32;;
29906;SDS011;16776;50.958;10.994;2022-08-04T10:42:49;0.68;;;0.68;;
29906;SDS011;16776;50.958;10.994;2022-08-04T10:45:22;0.75;;;0.73;;
29906;SDS011;16776;50.958;10.994;2022-08-04T10:47:58;0.43;;;0.43;;
29906;SDS011;16776;50.958;10.994;2022-08-04T10:50:32;0.40;;;0.40;;
29906;SDS011;16776;50.958;10.994;2022-08-04T10:53:12;0.38;;;0.38;;
29906;SDS011;16776;50.958;10.994;2022-08-04T10:55:44;0.40;;;0.40;;
29906;SDS011;16776;50.958;10.994;2022-08-04T10:58:17;0.40;;;0.40;;
29906;SDS011;16776;50.958;10.994;2022-08-04T11:00:47;0.40;;;0.40;;
29906;SDS011;16776;50.958;10.994;2022-08-04T11:03:18;0.40;;;0.40;;
29906;SDS011;16776;50.958;10.994;2022-08-04T11:05:51;0.60;;;0.50;;
29906;SDS011;16776;50.958;10.994;2022-08-04T11:08:20;0.55;;;0.43;;
29906;SDS011;16776;50.958;10.994;2022-08-04T11:10:50;0.40;;;0.40;;
29906;SDS011;16776;50.958;10.994;2022-08-04T11:13:24;0.30;;;0.30;;
29906;SDS011;16776;50.958;10.994;2022-08-04T11:16:01;0.50;;;0.50;;
29906;SDS011;16776;50.958;10.994;2022-08-04T11:18:38;0.30;;;0.30;;
29906;SDS011;16776;50.958;10.994;2022-08-04T11:21:18;0.80;;;0.57;;
29906;SDS011;16776;50.958;10.994;2022-08-04T11:23:51;0.70;;;0.70;;
29906;SDS011;16776;50.958;10.994;2022-08-04T11:26:23;0.60;;;0.60;;
29906;SDS011;16776;50.958;10.994;2022-08-04T11:29:04;0.40;;;0.40;;
29906;SDS011;16776;50.958;10.994;2022-08-04T11:31:39;1.48;;;0.80;;
29906;SDS011;16776;50.958;10.994;2022-08-04T11:34:10;0.70;;;0.60;;
29906;SDS011;16776;50.958;10.994;2022-08-04T11:36:45;0.50;;;0.50;;
29906;SDS011;16776;50.958;10.994;2022-08-04T11:39:20;1.52;;;0.55;;
29906;SDS011;16776;50.958;10.994;2022-08-04T11:41:55;0.60;;;0.60;;
29906;SDS011;16776;50.958;10.994;2022-08-04T11:44:28;3.00;;;0.70;;
29906;SDS011;16776;50.958;10.994;2022-08-04T11:46:58;0.65;;;0.50;;
29906;SDS011;16776;50.958;10.994;2022-08-04T11:49:31;0.55;;;0.55;;
29906;SDS011;16776;50.958;10.994;2022-08-04T11:52:02;0.45;;;0.45;;
29906;SDS011;16776;50.958;10.994;2022-08-04T11:54:30;0.65;;;0.52;;
29906;SDS011;16776;50.958;10.994;2022-08-04T11:56:59;1.67;;;0.90;;
29906;SDS011;16776;50.958;10.994;2022-08-04T11:59:27;0.52;;;0.52;;
29906;SDS011;16776;50.958;10.994;2022-08-04T12:02:01;0.63;;;0.55;;
29906;SDS011;16776;50.958;10.994;2022-08-04T12:04:46;0.57;;;0.50;;
29906;SDS011;16776;50.958;10.994;2022-08-04T12:07:22;0.77;;;0.65;;
29906;SDS011;16776;50.958;10.994;2022-08-04T12:10:08;0.70;;;0.70;;
29906;SDS011;16776;50.958;10.994;2022-08-04T12:12:45;0.98;;;0.88;;
29906;SDS011;16776;50.958;10.994;2022-08-04T12:15:25;0.68;;;0.68;;
29906;SDS011;16776;50.958;10.994;2022-08-04T12:17:56;0.60;;;0.60;;
29906;SDS011;16776;50.958;10.994;2022-08-04T12:20:33;0.68;;;0.65;;
29906;SDS011;16776;50.958;10.994;2022-08-04T12:23:11;0.45;;;0.45;;
29906;SDS011;16776;50.958;10.994;2022-08-04T12:25:45;0.52;;;0.52;;
29906;SDS011;16776;50.958;10.994;2022-08-04T12:28:15;0.40;;;0.40;;
29906;SDS011;16776;50.958;10.994;2022-08-04T12:30:51;1.33;;;0.30;;
29906;SDS011;16776;50.958;10.994;2022-08-04T12:33:23;0.38;;;0.35;;
29906;SDS011;16776;50.958;10.994;2022-08-04T12:35:57;0.40;;;0.40;;
29906;SDS011;16776;50.958;10.994;2022-08-04T12:38:31;0.50;;;0.50;;
29906;SDS011;16776;50.958;10.994;2022-08-04T12:40:59;0.40;;;0.40;;
29906;SDS011;16776;50.958;10.994;2022-08-04T12:43:28;1.65;;;0.57;;
29906;SDS011;16776;50.958;10.994;2022-08-04T12:46:02;0.52;;;0.52;;
29906;SDS011;16776;50.958;10.994;2022-08-04T12:48:31;0.50;;;0.50;;
29906;SDS011;16776;50.958;10.994;2022-08-04T12:51:00;0.70;;;0.70;;
29906;SDS011;16776;50.958;10.994;2022-08-04T12:53:28;0.70;;;0.70;;
29906;SDS011;16776;50.958;10.994;2022-08-04T12:55:59;0.60;;;0.60;;
29906;SDS011;16776;50.958;10.994;2022-08-04T12:58:27;0.40;;;0.40;;
29906;SDS011;16776;50.958;10.994;2022-08-04T13:00:58;0.50;;;0.50;;
29906;SDS011;16776;50.958;10.994;2022-08-04T13:03:36;0.45;;;0.45;;
29906;SDS011;16776;50.958;10.994;2022-08-04T13:06:05;0.52;;;0.35;;
29906;SDS011;16776;50.958;10.994;2022-08-04T13:08:34;0.75;;;0.52;;
29906;SDS011;16776;50.958;10.994;2022-08-04T13:11:12;0.60;;;0.60;;
29906;SDS011;16776;50.958;10.994;2022-08-04T13:13:42;0.30;;;0.30;;
29906;SDS011;16776;50.958;10.994;2022-08-04T13:16:10;0.60;;;0.60;;
29906;SDS011;16776;50.958;10.994;2022-08-04T13:18:39;0.70;;;0.70;;
29906;SDS011;16776;50.958;10.994;2022-08-04T13:21:13;0.40;;;0.40;;
29906;SDS011;16776;50.958;10.994;2022-08-04T13:23:41;0.50;;;0.50;;
29906;SDS011;16776;50.958;10.994;2022-08-04T13:26:11;0.50;;;0.50;;
29906;SDS011;16776;50.958;10.994;2022-08-04T13:28:40;0.85;;;0.50;;
29906;SDS011;16776;50.958;10.994;2022-08-04T13:31:10;0.43;;;0.43;;
29906;SDS011;16776;50.958;10.994;2022-08-04T13:33:41;0.68;;;0.68;;
29906;SDS011;16776;50.958;10.994;2022-08-04T13:36:10;0.60;;;0.60;;
29906;SDS011;16776;50.958;10.994;2022-08-04T13:38:39;1.33;;;0.50;;
29906;SDS011;16776;50.958;10.994;2022-08-04T13:41:12;0.55;;;0.55;;
29906;SDS011;16776;50.958;10.994;2022-08-04T13:43:42;0.40;;;0.40;;
29906;SDS011;16776;50.958;10.994;2022-08-04T13:46:12;0.60;;;0.60;;
29906;SDS011;16776;50.958;10.994;2022-08-04T13:48:42;0.85;;;0.85;;
29906;SDS011;16776;50.958;10.994;2022-08-04T13:51:09;0.70;;;0.70;;
29906;SDS011;16776;50.958;10.994;2022-08-04T13:53:37;1.45;;;0.70;;
29906;SDS011;16776;50.958;10.994;2022-08-04T13:56:07;0.70;;;0.70;;
29906;SDS011;16776;50.958;10.994;2022-08-04T13:58:40;0.57;;;0.57;;
29906;SDS011;16776;50.958;10.994;2022-08-04T14:01:13;0.43;;;0.43;;
29906;SDS011;16776;50.958;10.994;2022-08-04T14:03:44;0.55;;;0.55;;
29906;SDS011;16776;50.958;10.994;2022-08-04T14:06:20;0.70;;;0.70;;
29906;SDS011;16776;50.958;10.994;2022-08-04T14:08:50;0.50;;;0.50;;
29906;SDS011;16776;50.958;10.994;2022-08-04T14:11:21;0.60;;;0.60;;
29906;SDS011;16776;50.958;10.994;2022-08-04T14:13:58;0.40;;;0.40;;
29906;SDS011;16776;50.958;10.994;2022-08-04T14:16:25;0.45;;;0.45;;
29906;SDS011;16776;50.958;10.994;2022-08-04T14:18:56;0.55;;;0.55;;
29906;SDS011;16776;50.958;10.994;2022-08-04T14:21:24;0.50;;;0.50;;
29906;SDS011;16776;50.958;10.994;2022-08-04T14:23:52;0.55;;;0.55;;
29906;SDS011;16776;50.958;10.994;2022-08-04T14:26:25;0.80;;;0.80;;
29906;SDS011;16776;50.958;10.994;2022-08-04T14:28:54;0.50;;;0.50;;
29906;SDS011;16776;50.958;10.994;2022-08-04T14:31:24;0.80;;;0.80;;
29906;SDS011;16776;50.958;10.994;2022-08-04T14:33:52;1.02;;;0.60;;
29906;SDS011;16776;50.958;10.994;2022-08-04T14:36:19;2.40;;;0.75;;
29906;SDS011;16776;50.958;10.994;2022-08-04T14:38:48;0.80;;;0.80;;
29906;SDS011;16776;50.958;10.994;2022-08-04T14:41:18;0.70;;;0.70;;
29906;SDS011;16776;50.958;10.994;2022-08-04T14:43:47;0.65;;;0.60;;
29906;SDS011;16776;50.958;10.994;2022-08-04T14:46:18;0.57;;;0.57;;
29906;SDS011;16776;50.958;10.994;2022-08-04T14:49:03;0.50;;;0.50;;
29906;SDS011;16776;50.958;10.994;2022-08-04T14:51:35;0.68;;;0.68;;
29906;SDS011;16776;50.958;10.994;2022-08-04T14:54:04;0.60;;;0.60;;
29906;SDS011;16776;50.958;10.994;2022-08-04T14:56:31;0.77;;;0.77;;
29906;SDS011;16776;50.958;10.994;2022-08-04T14:58:59;0.68;;;0.68;;
29906;SDS011;16776;50.958;10.994;2022-08-04T15:01:27;0.60;;;0.60;;
29906;SDS011;16776;50.958;10.994;2022-08-04T15:03:55;0.50;;;0.50;;
29906;SDS011;16776;50.958;10.994;2022-08-04T15:06:26;1.73;;;0.82;;
29906;SDS011;16776;50.958;10.994;2022-08-04T15:08:55;0.90;;;0.60;;
29906;SDS011;16776;50.958;10.994;2022-08-04T15:11:23;0.65;;;0.65;;
29906;SDS011;16776;50.958;10.994;2022-08-04T15:13:51;0.57;;;0.57;;
29906;SDS011;16776;50.958;10.994;2022-08-04T15:16:18;0.50;;;0.50;;
29906;SDS011;16776;50.958;10.994;2022-08-04T15:18:45;0.65;;;0.65;;
29906;SDS011;16776;50.958;10.994;2022-08-04T15:21:12;0.50;;;0.50;;
29906;SDS011;16776;50.958;10.994;2022-08-04T15:23:41;0.82;;;0.82;;
29906;SDS011;16776;50.958;10.994;2022-08-04T15:26:09;0.60;;;0.60;;
29906;SDS011;16776;50.958;10.994;2022-08-04T15:28:41;0.88;;;0.88;;
29906;SDS011;16776;50.958;10.994;2022-08-04T15:31:13;0.50;;;0.50;;
29906;SDS011;16776;50.958;10.994;2022-08-04T15:33:42;0.70;;;0.70;;
29906;SDS011;16776;50.958;10.994;2022-08-04T15:36:09;0.70;;;0.70;;
29906;SDS011;16776;50.958;10.994;2022-08-04T15:38:48;0.88;;;0.88;;
29906;SDS011;16776;50.958;10.994;2022-08-04T15:41:21;0.55;;;0.55;;
29906;SDS011;16776;50.958;10.994;2022-08-04T15:43:58;0.63;;;0.63;;
29906;SDS011;16776;50.958;10.994;2022-08-04T15:49:37;0.60;;;0.60;;
29906;SDS011;16776;50.958;10.994;2022-08-04T15:52:06;0.63;;;0.63;;
29906;SDS011;16776;50.958;10.994;2022-08-04T15:54:36;0.80;;;0.80;;
29906;SDS011;16776;50.958;10.994;2022-08-04T15:57:03;0.47;;;0.47;;
29906;SDS011;16776;50.958;10.994;2022-08-04T16:02:36;0.60;;;0.60;;
29906;SDS011;16776;50.958;10.994;2022-08-04T16:08:12;0.98;;;0.60;;
29906;SDS011;16776;50.958;10.994;2022-08-04T16:10:42;0.75;;;0.75;;